Time;durP1;ratioP1;P1;durP2;ratioP2;P2;SDS_P1;SDS_P2;PMS_P1;PMS_P2;Temp;Humidity;BMP_temperature;BMP_pressure;BME280_temperature;BME280_humidity;BME280_pressure;Samples;Min_cycle;Max_cycle;Signal;HPM_P1;HPM_P2
2023/04/28 00:00:56;;;;;;;0.43;0.43;;;;;;;9.98;85.62;95403.00;4367842;32;20322;-58
2023/04/28 00:03:27;;;;;;;0.63;0.63;;;;;;;9.85;85.79;95406.38;4354785;32;20276;-58
2023/04/28 00:05:54;;;;;;;0.53;0.53;;;;;;;9.83;86.10;95403.22;4346750;32;20289;-56
2023/04/28 00:08:25;;;;;;;1.37;0.90;;;;;;;9.73;86.35;95396.22;4370268;32;20193;-55
2023/04/28 00:10:53;;;;;;;0.40;0.40;;;;;;;9.70;86.58;95398.66;4369117;32;20296;-55
2023/04/28 00:13:19;;;;;;;0.97;0.97;;;;;;;9.80;85.92;95395.84;4383892;32;20291;-55
2023/04/28 00:15:46;;;;;;;0.63;0.63;;;;;;;9.72;86.34;95388.56;4365119;32;20215;-54
2023/04/28 00:18:23;;;;;;;0.47;0.47;;;;;;;9.86;86.17;95392.06;4369509;32;20196;-54
2023/04/28 00:20:50;;;;;;;0.73;0.73;;;;;;;10.06;85.29;95391.75;4357689;32;20302;-56
2023/04/28 00:23:18;;;;;;;0.53;0.53;;;;;;;10.06;84.78;95383.81;4319999;32;20343;-55
2023/04/28 00:25:50;;;;;;;0.90;0.90;;;;;;;10.12;84.66;95380.03;4334890;32;20201;-55
2023/04/28 00:28:18;;;;;;;1.03;0.67;;;;;;;10.07;84.66;95374.78;4330549;32;20272;-51
2023/04/28 00:30:46;;;;;;;0.30;0.30;;;;;;;10.03;84.68;95380.94;4341746;32;20192;-55
2023/04/28 00:33:13;;;;;;;0.37;0.37;;;;;;;10.02;84.99;95379.38;4342117;32;20289;-55
2023/04/28 00:35:40;;;;;;;0.50;0.50;;;;;;;9.94;85.22;95378.19;4346027;32;20263;-55
2023/04/28 00:38:06;;;;;;;0.73;0.73;;;;;;;9.96;85.09;95374.16;4365357;32;20199;-53
2023/04/28 00:40:38;;;;;;;5.93;0.70;;;;;;;10.09;84.55;95363.91;4372366;32;20244;-55
2023/04/28 00:43:05;;;;;;;0.60;0.60;;;;;;;10.19;84.44;95361.91;4358895;32;20192;-54
2023/04/28 00:45:33;;;;;;;1.80;0.50;;;;;;;10.16;84.32;95365.13;4369444;32;20261;-52
2023/04/28 00:48:00;;;;;;;1.00;0.90;;;;;;;10.17;84.42;95356.09;4354288;32;20210;-54
2023/04/28 00:50:28;;;;;;;0.57;0.57;;;;;;;10.16;84.26;95362.47;4369666;32;20184;-54
2023/04/28 00:52:57;;;;;;;0.50;0.50;;;;;;;10.23;83.93;95364.75;4370873;32;20266;-55
2023/04/28 00:55:34;;;;;;;0.80;0.80;;;;;;;10.24;83.91;95367.13;4324821;32;20193;-56
2023/04/28 00:58:01;;;;;;;0.37;0.37;;;;;;;10.29;83.74;95364.41;4353944;32;20257;-52
2023/04/28 01:00:26;;;;;;;0.77;0.70;;;;;;;10.33;83.54;95364.59;4350990;32;20189;-56
2023/04/28 01:02:54;;;;;;;0.53;0.50;;;;;;;10.36;83.39;95365.91;4370672;32;20264;-57
2023/04/28 01:05:32;;;;;;;0.73;0.73;;;;;;;10.35;83.31;95359.81;4368015;32;20199;-57
2023/04/28 01:07:57;;;;;;;0.50;0.50;;;;;;;10.41;83.44;95361.28;4275782;32;20299;-57
2023/04/28 01:10:23;;;;;;;0.67;0.67;;;;;;;10.36;83.38;95353.44;4351273;32;20192;-55
2023/04/28 01:12:49;;;;;;;0.60;0.60;;;;;;;10.26;83.56;95353.56;4362453;32;20287;-56
2023/04/28 01:15:18;;;;;;;0.63;0.63;;;;;;;10.38;83.41;95350.50;4379891;32;20280;-54
2023/04/28 01:17:46;;;;;;;0.40;0.40;;;;;;;10.15;83.92;95357.44;4376955;32;20246;-54
2023/04/28 01:20:14;;;;;;;0.50;0.50;;;;;;;10.24;84.01;95347.78;4372286;32;20196;-56
2023/04/28 01:22:41;;;;;;;0.30;0.30;;;;;;;10.19;83.89;95340.69;4373738;32;20208;-56
2023/04/28 01:25:08;;;;;;;0.23;0.23;;;;;;;10.02;84.83;95337.75;4330319;32;20212;-57
2023/04/28 01:27:35;;;;;;;0.50;0.50;;;;;;;10.10;84.59;95342.41;4351447;32;20204;-55
2023/04/28 01:30:02;;;;;;;0.40;0.40;;;;;;;10.20;84.22;95333.53;4322132;32;20216;-54
2023/04/28 01:32:27;;;;;;;0.53;0.53;;;;;;;10.16;84.05;95333.31;4346652;32;20224;-58
2023/04/28 01:34:54;;;;;;;0.73;0.73;;;;;;;10.16;84.41;95335.97;4341783;32;20200;-52
2023/04/28 01:37:22;;;;;;;0.13;0.13;;;;;;;9.93;84.98;95329.69;4342829;32;20244;-55
2023/04/28 01:39:50;;;;;;;0.10;0.10;;;;;;;9.91;85.42;95326.53;4338739;32;20304;-54
2023/04/28 01:42:20;;;;;;;0.20;0.20;;;;;;;9.91;85.54;95325.75;4373352;32;20289;-56
2023/04/28 01:44:47;;;;;;;0.30;0.30;;;;;;;10.04;85.09;95321.56;4374070;32;20240;-52
2023/04/28 01:47:15;;;;;;;0.60;0.60;;;;;;;10.04;84.88;95321.56;4346853;32;20271;-56
2023/04/28 01:49:41;;;;;;;0.30;0.30;;;;;;;10.10;85.03;95318.56;4348838;32;20216;-54
2023/04/28 01:52:07;;;;;;;0.40;0.40;;;;;;;10.16;84.87;95317.41;4352316;32;20203;-55
2023/04/28 01:54:32;;;;;;;0.47;0.47;;;;;;;10.15;84.59;95323.78;4337793;32;20188;-54
2023/04/28 01:56:59;;;;;;;0.60;0.60;;;;;;;10.29;84.10;95332.59;4354101;32;20226;-54
2023/04/28 01:59:25;;;;;;;1.00;1.00;;;;;;;10.14;84.53;95322.19;4373090;32;20189;-55
2023/04/28 02:01:53;;;;;;;0.30;0.30;;;;;;;10.31;84.18;95325.12;4370909;32;20197;-56
2023/04/28 02:04:22;;;;;;;0.20;0.20;;;;;;;10.32;84.48;95321.41;4349461;32;20557;-54
2023/04/28 02:06:53;;;;;;;0.47;0.47;;;;;;;10.29;84.11;95316.66;4309108;32;20330;-54
2023/04/28 02:09:19;;;;;;;0.77;0.60;;;;;;;10.28;84.10;95319.63;4340864;32;20284;-56
2023/04/28 02:11:45;;;;;;;0.40;0.40;;;;;;;10.40;83.94;95322.56;4354548;32;20207;-54
2023/04/28 02:14:13;;;;;;;2.73;0.70;;;;;;;10.22;84.01;95326.84;4359420;32;20197;-54
2023/04/28 02:16:38;;;;;;;0.17;0.17;;;;;;;10.28;84.14;95328.34;4367842;32;20223;-54
2023/04/28 02:19:06;;;;;;;0.20;0.20;;;;;;;10.33;84.04;95332.78;4370493;32;20188;-56
2023/04/28 02:21:32;;;;;;;0.30;0.30;;;;;;;10.44;83.75;95338.69;4351403;32;20216;-55
2023/04/28 02:23:58;;;;;;;0.33;0.33;;;;;;;10.57;82.86;95333.44;4324467;32;20258;-58
2023/04/28 02:26:24;;;;;;;0.37;0.37;;;;;;;10.47;83.30;95338.91;4354267;32;20239;-55
2023/04/28 02:28:51;;;;;;;0.60;0.60;;;;;;;10.43;83.50;95337.13;4319975;32;20205;-56
2023/04/28 02:31:16;;;;;;;0.43;0.43;;;;;;;10.67;82.74;95341.19;4329749;32;20297;-55
2023/04/28 02:33:42;;;;;;;0.40;0.40;;;;;;;10.48;83.40;95345.78;4377090;32;20259;-55
2023/04/28 02:36:09;;;;;;;0.40;0.40;;;;;;;10.48;83.94;95334.38;4385822;32;20253;-56
2023/04/28 02:38:36;;;;;;;0.43;0.43;;;;;;;10.41;84.70;95320.72;4388509;32;20200;-56
2023/04/28 02:41:08;;;;;;;0.30;0.30;;;;;;;10.48;85.31;95319.25;4357562;32;20263;-54
2023/04/28 02:43:36;;;;;;;0.50;0.50;;;;;;;10.50;85.66;95326.94;4369521;32;20235;-55
2023/04/28 02:46:02;;;;;;;0.17;0.17;;;;;;;10.44;85.77;95328.09;4342474;32;20283;-55
2023/04/28 02:48:28;;;;;;;0.40;0.40;;;;;;;10.44;86.54;95322.78;4352897;32;20209;-57
2023/04/28 02:50:56;;;;;;;0.80;0.63;;;;;;;10.26;88.13;95311.94;4379310;32;20287;-58
2023/04/28 02:53:22;;;;;;;0.40;0.40;;;;;;;10.22;89.01;95312.81;4351873;32;20189;-56
2023/04/28 02:55:53;;;;;;;0.23;0.23;;;;;;;10.37;88.64;95322.41;4374039;32;20196;-58
2023/04/28 02:58:20;;;;;;;0.33;0.33;;;;;;;10.29;89.41;95300.75;4368195;32;20188;-57
2023/04/28 03:00:47;;;;;;;0.40;0.40;;;;;;;10.13;90.08;95291.47;4351024;32;20201;-57
2023/04/28 03:03:12;;;;;;;0.30;0.30;;;;;;;9.92;90.85;95291.00;4350950;32;20204;-56
2023/04/28 03:05:39;;;;;;;0.10;0.10;;;;;;;9.72;92.18;95280.75;4353721;32;20306;-58
2023/04/28 03:08:08;;;;;;;0.80;0.80;;;;;;;9.70;93.00;95288.19;4376953;32;20196;-57
2023/04/28 03:10:33;;;;;;;0.53;0.53;;;;;;;9.88;92.40;95282.06;4358479;32;20281;-58
2023/04/28 03:12:59;;;;;;;0.30;0.30;;;;;;;9.96;91.70;95286.72;4375200;32;20343;-58
2023/04/28 03:15:26;;;;;;;0.53;0.53;;;;;;;10.03;91.42;95291.63;4334836;32;20189;-57
2023/04/28 03:17:52;;;;;;;0.40;0.40;;;;;;;10.03;90.88;95288.97;4358351;32;20262;-57
2023/04/28 03:20:17;;;;;;;0.17;0.17;;;;;;;9.95;91.60;95290.44;4331721;32;20282;-56
2023/04/28 03:22:43;;;;;;;0.10;0.10;;;;;;;9.99;91.92;95290.63;4371266;32;20235;-58
2023/04/28 03:25:09;;;;;;;0.60;0.57;;;;;;;9.99;91.78;95290.63;4312164;32;20245;-57
2023/04/28 03:27:34;;;;;;;0.33;0.33;;;;;;;10.07;91.35;95292.63;4385913;32;20342;-57
2023/04/28 03:30:02;;;;;;;0.20;0.20;;;;;;;10.34;90.53;95297.25;4386746;32;20212;-58
2023/04/28 03:32:30;;;;;;;0.23;0.23;;;;;;;10.48;89.25;95295.38;4361102;32;20209;-57
2023/04/28 03:34:59;;;;;;;0.90;0.90;;;;;;;10.41;89.56;95299.50;4383829;32;20227;-57
2023/04/28 03:37:26;;;;;;;0.77;0.43;;;;;;;10.23;91.19;95299.28;4390626;32;20196;-56
2023/04/28 03:39:53;;;;;;;0.20;0.20;;;;;;;10.42;90.41;95306.37;4337698;32;20208;-57
2023/04/28 03:42:18;;;;;;;0.77;0.43;;;;;;;10.45;90.05;95287.22;4359580;32;20192;-57
2023/04/28 03:44:46;;;;;;;1.43;0.33;;;;;;;10.16;90.94;95275.00;4345832;32;20212;-56
2023/04/28 03:47:13;;;;;;;0.37;0.37;;;;;;;10.21;90.71;95274.91;4345517;32;20286;-56
2023/04/28 03:49:40;;;;;;;0.13;0.13;;;;;;;10.25;90.79;95278.56;4350117;32;20314;-57
2023/04/28 03:52:06;;;;;;;0.37;0.37;;;;;;;10.17;91.21;95286.38;4322229;32;20205;-56
2023/04/28 03:54:31;;;;;;;0.30;0.30;;;;;;;10.15;91.71;95284.03;4350215;32;20216;-57
2023/04/28 03:56:56;;;;;;;0.23;0.23;;;;;;;9.97;92.71;95280.34;4360282;32;20196;-58
2023/04/28 03:59:25;;;;;;;0.50;0.50;;;;;;;9.93;92.38;95292.59;4332866;32;20226;-57
2023/04/28 04:01:52;;;;;;;0.57;0.57;;;;;;;10.04;92.50;95292.41;4368996;32;20212;-57
2023/04/28 04:04:19;;;;;;;0.20;0.20;;;;;;;10.02;92.39;95286.59;4383365;32;20352;-56
2023/04/28 04:06:45;;;;;;;0.27;0.27;;;;;;;10.11;92.34;95293.63;4368927;32;20285;-56
2023/04/28 04:09:11;;;;;;;0.40;0.40;;;;;;;10.19;92.18;95290.31;4365607;32;20280;-56
2023/04/28 04:11:39;;;;;;;0.30;0.30;;;;;;;10.25;92.67;95291.81;4363129;32;20237;-56
2023/04/28 04:14:06;;;;;;;2.90;0.60;;;;;;;10.09;92.96;95289.69;4328938;32;20185;-56
2023/04/28 04:16:37;;;;;;;0.20;0.20;;;;;;;10.01;93.14;95277.88;4330897;32;20212;-56
2023/04/28 04:19:03;;;;;;;0.23;0.23;;;;;;;9.88;93.79;95282.06;4339229;32;20296;-53
2023/04/28 04:21:30;;;;;;;0.20;0.20;;;;;;;10.15;93.23;95275.28;4352809;32;20323;-56
2023/04/28 04:23:58;;;;;;;0.33;0.33;;;;;;;10.31;93.06;95292.53;4365191;32;20396;-56
2023/04/28 04:26:25;;;;;;;0.63;0.63;;;;;;;10.53;91.79;95278.59;4341941;32;20197;-53
2023/04/28 04:28:50;;;;;;;0.53;0.53;;;;;;;10.48;92.42;95268.87;4373093;32;20266;-55
2023/04/28 04:31:18;;;;;;;0.27;0.27;;;;;;;10.67;91.45;95268.78;4365803;32;20280;-56
2023/04/28 04:33:44;;;;;;;0.50;0.50;;;;;;;10.56;91.78;95260.25;4338071;32;20201;-54
2023/04/28 04:36:10;;;;;;;0.30;0.30;;;;;;;10.62;91.53;95260.91;4352738;32;20203;-56
2023/04/28 04:38:35;;;;;;;0.27;0.20;;;;;;;10.65;91.77;95260.31;4361474;32;20236;-59
2023/04/28 04:41:02;;;;;;;0.30;0.30;;;;;;;10.80;90.53;95273.31;4363066;32;20200;-58
2023/04/28 04:43:28;;;;;;;0.10;0.10;;;;;;;10.76;90.25;95282.94;4361753;32;20214;-59
2023/04/28 04:45:56;;;;;;;0.50;0.50;;;;;;;10.77;90.27;95278.44;4382113;32;20223;-58
2023/04/28 04:48:21;;;;;;;0.77;0.53;;;;;;;10.76;90.41;95280.28;4353795;32;20215;-58
2023/04/28 04:50:48;;;;;;;0.23;0.23;;;;;;;10.85;90.24;95278.50;4369315;32;20188;-58
2023/04/28 04:53:15;;;;;;;0.27;0.27;;;;;;;10.76;90.83;95282.16;4364176;32;20219;-58
2023/04/28 04:55:42;;;;;;;0.30;0.30;;;;;;;10.89;90.40;95270.75;4323607;32;20216;-58
2023/04/28 04:58:09;;;;;;;0.13;0.13;;;;;;;10.92;90.45;95273.59;4357492;32;20228;-58
2023/04/28 05:00:36;;;;;;;0.20;0.20;;;;;;;10.90;91.03;95269.66;4364075;32;20193;-59
2023/04/28 05:03:05;;;;;;;0.57;0.57;;;;;;;10.97;90.61;95267.41;4369972;32;20236;-57
2023/04/28 05:05:33;;;;;;;0.40;0.40;;;;;;;10.99;91.16;95276.66;4371701;32;20189;-58
2023/04/28 05:07:58;;;;;;;0.47;0.47;;;;;;;11.00;91.65;95296.81;4362740;32;20192;-59
2023/04/28 05:10:27;;;;;;;0.33;0.33;;;;;;;11.11;91.69;95297.38;4367528;32;20201;-58
2023/04/28 05:12:56;;;;;;;0.70;0.70;;;;;;;11.09;92.19;95296.09;4334948;32;20257;-58
2023/04/28 05:15:23;;;;;;;0.70;0.70;;;;;;;11.01;91.31;95300.25;4352606;32;20234;-59
2023/04/28 05:18:09;;;;;;;1.33;1.03;;;;;;;11.03;90.21;95306.00;4378637;32;20192;-59
2023/04/28 05:20:36;;;;;;;0.70;0.70;;;;;;;11.22;89.51;95309.34;4348231;32;20216;-58
2023/04/28 05:23:02;;;;;;;0.93;0.93;;;;;;;11.14;90.41;95307.41;4364342;32;20196;-59
2023/04/28 05:25:29;;;;;;;0.50;0.50;;;;;;;11.00;91.03;95302.12;4308899;32;20201;-59
2023/04/28 05:27:56;;;;;;;1.00;0.77;;;;;;;11.20;90.83;95313.41;4324613;32;20211;-59
2023/04/28 05:30:23;;;;;;;1.07;0.77;;;;;;;11.21;90.56;95309.66;4340277;32;20253;-59
2023/04/28 05:32:52;;;;;;;0.50;0.50;;;;;;;11.11;90.81;95312.50;4375376;32;20207;-59
2023/04/28 05:35:21;;;;;;;0.80;0.50;;;;;;;11.12;90.64;95311.44;4313734;32;20321;-59
2023/04/28 05:37:48;;;;;;;1.87;0.57;;;;;;;11.17;90.97;95314.00;4323995;32;20395;-59
2023/04/28 05:40:15;;;;;;;0.93;0.87;;;;;;;11.05;92.14;95311.03;4344271;32;20255;-58
2023/04/28 05:42:41;;;;;;;0.30;0.30;;;;;;;11.04;91.39;95315.56;4326878;32;20216;-59
2023/04/28 05:45:09;;;;;;;1.30;1.00;;;;;;;10.95;91.06;95312.81;4333702;32;20197;-58
2023/04/28 05:47:37;;;;;;;0.60;0.60;;;;;;;11.03;90.84;95312.13;4359176;32;20205;-58
2023/04/28 05:50:03;;;;;;;0.80;0.80;;;;;;;11.11;90.42;95293.94;4358678;32;20264;-59
2023/04/28 05:52:31;;;;;;;0.67;0.67;;;;;;;11.15;90.30;95300.22;4368164;32;20192;-59
2023/04/28 05:54:56;;;;;;;0.67;0.67;;;;;;;11.12;90.68;95300.81;4356936;32;20212;-59
2023/04/28 05:57:26;;;;;;;0.37;0.37;;;;;;;10.99;91.47;95302.41;4372283;32;20215;-58
2023/04/28 05:59:52;;;;;;;0.30;0.30;;;;;;;11.03;91.63;95292.75;4334822;32;20216;-58
2023/04/28 06:02:19;;;;;;;0.50;0.50;;;;;;;11.14;91.26;95293.34;4361522;32;20239;-58
2023/04/28 06:04:45;;;;;;;1.00;0.90;;;;;;;11.10;91.23;95303.75;4350690;32;20194;-59
2023/04/28 06:07:10;;;;;;;0.40;0.40;;;;;;;11.15;91.57;95310.84;4365869;32;20200;-58
2023/04/28 06:09:37;;;;;;;0.67;0.67;;;;;;;11.37;89.87;95334.81;4321665;32;20201;-58
2023/04/28 06:12:05;;;;;;;1.90;0.60;;;;;;;11.20;90.57;95322.16;4308191;32;20251;-58
2023/04/28 06:14:32;;;;;;;0.30;0.30;;;;;;;11.10;90.97;95316.25;4342938;32;20355;-58
2023/04/28 06:16:57;;;;;;;0.50;0.50;;;;;;;11.18;90.97;95315.56;4363448;32;20208;-59
2023/04/28 06:19:24;;;;;;;0.40;0.40;;;;;;;11.19;90.80;95307.31;4341247;32;20213;-58
2023/04/28 06:21:52;;;;;;;0.60;0.60;;;;;;;11.24;90.81;95303.72;4369524;32;20189;-58
2023/04/28 06:24:19;;;;;;;0.20;0.20;;;;;;;11.26;90.81;95307.66;4356326;32;20196;-59
2023/04/28 06:26:46;;;;;;;0.20;0.20;;;;;;;11.22;91.52;95300.63;4322231;32;20231;-58
2023/04/28 06:29:12;;;;;;;4.07;1.40;;;;;;;11.19;92.00;95309.16;4338167;32;20201;-62
2023/04/28 06:31:39;;;;;;;26.73;1.17;;;;;;;11.88;96.34;95302.62;4301105;32;20245;-62
2023/04/28 06:34:05;;;;;;;0.40;0.40;;;;;;;13.55;96.35;95299.28;4340227;32;20075;-62
2023/04/28 06:36:31;;;;;;;2.07;0.63;;;;;;;14.12;89.30;95289.28;4342440;32;20219;-61
2023/04/28 06:38:58;;;;;;;0.60;0.60;;;;;;;14.62;82.55;95292.16;4353617;32;20237;-61
2023/04/28 06:41:23;;;;;;;0.40;0.40;;;;;;;15.12;78.10;95286.91;4330693;32;20234;-62
2023/04/28 06:43:50;;;;;;;1.10;0.50;;;;;;;15.13;76.31;95291.16;4379396;32;20180;-62
2023/04/28 06:46:15;;;;;;;0.33;0.33;;;;;;;15.38;75.13;95289.44;4332049;32;20300;-62
2023/04/28 06:48:41;;;;;;;0.40;0.40;;;;;;;15.51;74.09;95286.84;4348494;32;20192;-62
2023/04/28 06:51:07;;;;;;;0.30;0.30;;;;;;;15.64;73.27;95275.91;4332625;32;20210;-62
2023/04/28 06:53:32;;;;;;;0.40;0.40;;;;;;;15.59;73.26;95272.69;4355546;32;20280;-62
2023/04/28 06:56:02;;;;;;;0.30;0.30;;;;;;;15.58;74.19;95271.88;4330337;32;20254;-61
2023/04/28 06:58:27;;;;;;;0.10;0.10;;;;;;;15.80;77.92;95268.84;4338161;32;20205;-58
2023/04/28 07:00:54;;;;;;;5.90;1.00;;;;;;;15.76;75.68;95262.63;4364112;32;20233;-58
2023/04/28 07:03:21;;;;;;;0.27;0.27;;;;;;;15.05;76.89;95262.59;4332255;32;20207;-59
2023/04/28 07:05:50;;;;;;;0.37;0.37;;;;;;;14.47;80.15;95259.84;4314415;32;20276;-58
2023/04/28 07:08:20;;;;;;;0.40;0.40;;;;;;;14.04;82.12;95261.50;4352356;32;20197;-61
2023/04/28 07:10:45;;;;;;;0.70;0.70;;;;;;;13.80;83.07;95252.41;4348180;32;20197;-59
2023/04/28 07:13:13;;;;;;;0.43;0.43;;;;;;;13.59;84.68;95258.38;4366853;32;20219;-59
2023/04/28 07:15:38;;;;;;;0.60;0.60;;;;;;;13.50;85.41;95262.94;4370643;32;20201;-60
2023/04/28 07:18:05;;;;;;;0.30;0.30;;;;;;;13.43;86.36;95264.47;4382524;32;20220;-58
2023/04/28 07:20:31;;;;;;;0.20;0.20;;;;;;;13.55;85.80;95267.31;4361073;32;20228;-59
2023/04/28 07:23:01;;;;;;;0.30;0.30;;;;;;;13.56;85.48;95264.31;4330798;32;20247;-58
2023/04/28 07:25:28;;;;;;;0.33;0.33;;;;;;;13.45;85.92;95256.97;4348807;32;20236;-59
2023/04/28 07:27:56;;;;;;;0.30;0.27;;;;;;;13.39;85.92;95256.31;4303131;32;20207;-59
2023/04/28 07:30:23;;;;;;;0.20;0.20;;;;;;;13.59;85.37;95253.03;4331537;32;20196;-59
2023/04/28 07:32:53;;;;;;;1.67;0.70;;;;;;;13.57;85.51;95249.12;4350779;32;20155;-59
2023/04/28 07:35:23;;;;;;;0.30;0.30;;;;;;;13.48;86.08;95251.81;4364040;32;20188;-58
2023/04/28 07:37:53;;;;;;;0.17;0.17;;;;;;;13.50;85.89;95248.81;4371985;32;20275;-58
2023/04/28 07:40:21;;;;;;;0.40;0.40;;;;;;;13.68;85.85;95251.19;4340719;32;20211;-59
2023/04/28 07:42:46;;;;;;;0.10;0.10;;;;;;;13.82;85.14;95253.66;4354103;32;20181;-59
2023/04/28 07:45:15;;;;;;;0.83;0.60;;;;;;;13.76;84.81;95244.25;4377164;32;20177;-58
2023/04/28 07:47:41;;;;;;;0.40;0.40;;;;;;;13.94;84.39;95243.13;4350887;32;20240;-59
2023/04/28 07:50:16;;;;;;;0.23;0.23;;;;;;;13.98;84.32;95243.28;4384966;32;20188;-58
2023/04/28 07:52:42;;;;;;;0.70;0.70;;;;;;;14.11;83.89;95255.69;4346475;32;20282;-60
2023/04/28 07:55:10;;;;;;;0.50;0.50;;;;;;;14.28;82.80;95257.53;4350551;32;20188;-56
2023/04/28 07:57:41;;;;;;;1.30;1.13;;;;;;;14.37;81.73;95259.06;4361514;32;20218;-56
2023/04/28 08:00:13;;;;;;;1.20;0.60;;;;;;;15.72;80.59;95263.59;4360122;32;20185;-56
2023/04/28 08:02:41;;;;;;;0.57;0.57;;;;;;;16.84;75.16;95262.47;4343167;32;20189;-56
2023/04/28 08:05:08;;;;;;;0.27;0.27;;;;;;;17.74;70.05;95262.19;4320151;32;20182;-57
2023/04/28 08:07:36;;;;;;;0.63;0.63;;;;;;;18.07;67.68;95269.25;4345403;32;20378;-58
2023/04/28 08:10:03;;;;;;;0.50;0.50;;;;;;;16.88;69.66;95267.97;4343130;32;20276;-55
2023/04/28 08:12:29;;;;;;;0.20;0.20;;;;;;;16.22;72.25;95266.13;4334153;32;20192;-55
2023/04/28 08:14:59;;;;;;;0.50;0.50;;;;;;;15.99;72.92;95262.28;4361909;32;20254;-55
2023/04/28 08:17:27;;;;;;;0.10;0.10;;;;;;;15.17;77.32;95266.47;4354854;32;20246;-54
2023/04/28 08:19:53;;;;;;;0.30;0.30;;;;;;;14.53;80.31;95258.59;4326675;32;20243;-54
2023/04/28 08:22:19;;;;;;;0.20;0.20;;;;;;;14.20;83.01;95260.97;4329549;32;20193;-55
2023/04/28 08:24:46;;;;;;;0.77;0.70;;;;;;;14.28;82.47;95260.97;4360407;32;20246;-52
2023/04/28 08:27:12;;;;;;;0.40;0.40;;;;;;;14.35;82.50;95265.81;4370881;32;20204;-55
2023/04/28 08:29:39;;;;;;;0.10;0.10;;;;;;;13.88;84.77;95259.63;4373001;32;20361;-62
2023/04/28 08:32:08;;;;;;;2.27;0.60;;;;;;;13.92;85.26;95252.56;4346241;32;20215;-57
2023/04/28 08:34:33;;;;;;;0.37;0.37;;;;;;;13.60;87.08;95251.94;4335402;32;20228;-53
2023/04/28 08:37:03;;;;;;;0.43;0.43;;;;;;;13.47;88.27;95250.22;4374657;32;20208;-53
2023/04/28 08:39:30;;;;;;;5.10;0.67;;;;;;;13.50;88.40;95246.16;4342437;32;20277;-52
2023/04/28 08:41:56;;;;;;;0.63;0.63;;;;;;;13.63;87.68;95232.66;4339278;32;20207;-53
2023/04/28 08:44:22;;;;;;;0.17;0.13;;;;;;;13.49;88.26;95240.03;4360955;32;20193;-57
2023/04/28 08:47:11;;;;;;;3.53;0.77;;;;;;;13.46;88.39;95238.00;4376588;32;20306;-55
2023/04/28 08:49:46;;;;;;;0.20;0.20;;;;;;;13.25;89.77;95239.72;4366276;32;20185;-58
2023/04/28 08:52:18;;;;;;;0.33;0.33;;;;;;;13.43;88.56;95235.97;4332977;32;20207;-56
2023/04/28 08:54:44;;;;;;;0.20;0.20;;;;;;;13.35;89.05;95226.84;4350460;32;20096;-54
2023/04/28 08:57:10;;;;;;;0.20;0.20;;;;;;;13.24;90.60;95236.25;4351845;32;20350;-55
2023/04/28 08:59:40;;;;;;;0.20;0.20;;;;;;;13.30;90.18;95234.22;4340895;32;20193;-56
2023/04/28 09:02:09;;;;;;;0.50;0.50;;;;;;;13.22;91.05;95235.00;4321498;32;20193;-53
2023/04/28 09:04:35;;;;;;;0.37;0.37;;;;;;;13.43;90.12;95227.97;4345981;32;20201;-54
2023/04/28 09:07:02;;;;;;;0.37;0.37;;;;;;;13.38;90.53;95233.44;4367153;32;20197;-53
2023/04/28 09:12:57;;;;;;;0.30;0.30;;;;;;;13.38;91.17;95226.22;4342877;32;20268;-54
2023/04/28 09:15:44;;;;;;;0.10;0.10;;;;;;;13.35;91.81;95226.06;4294253;32;20240;-55
2023/04/28 09:18:15;;;;;;;0.13;0.13;;;;;;;13.44;91.58;95215.41;4372340;32;20232;-59
2023/04/28 09:20:43;;;;;;;0.40;0.40;;;;;;;13.50;90.99;95222.97;4360106;32;20308;-56
2023/04/28 09:23:22;;;;;;;0.13;0.13;;;;;;;13.32;92.06;95222.16;4287065;32;20241;-55
2023/04/28 09:26:06;;;;;;;0.87;0.40;;;;;;;13.43;92.03;95213.84;4339316;32;20326;-56
2023/04/28 09:28:35;;;;;;;0.30;0.30;;;;;;;13.51;91.79;95211.16;4341454;32;20216;-57
2023/04/28 09:31:02;;;;;;;0.30;0.30;;;;;;;13.36;92.20;95212.44;4337265;32;20203;-56
2023/04/28 09:33:29;;;;;;;0.40;0.40;;;;;;;13.26;92.77;95206.63;4332269;32;20181;-60
2023/04/28 09:35:56;;;;;;;0.30;0.30;;;;;;;13.23;92.76;95213.38;4337416;32;20230;-59
2023/04/28 09:38:23;;;;;;;0.30;0.30;;;;;;;13.29;92.95;95211.34;4351438;32;20193;-60
2023/04/28 09:41:00;;;;;;;0.77;0.77;;;;;;;13.29;92.96;95217.47;4359794;32;20276;-56
2023/04/28 09:43:33;;;;;;;0.23;0.23;;;;;;;13.18;93.40;95221.50;4321446;32;20215;-57
2023/04/28 09:46:01;;;;;;;0.37;0.37;;;;;;;13.33;93.22;95220.25;4369994;32;20235;-57
2023/04/28 09:48:37;;;;;;;17.63;0.93;;;;;;;13.13;94.38;95210.97;4340152;32;20185;-57
2023/04/28 09:51:06;;;;;;;1.87;0.33;;;;;;;13.14;94.71;95209.88;4317174;32;20222;-57
2023/04/28 09:53:34;;;;;;;0.33;0.33;;;;;;;13.14;95.41;95214.41;4322112;32;20212;-57
2023/04/28 09:56:04;;;;;;;0.37;0.37;;;;;;;13.21;95.28;95210.25;4338483;32;20200;-56
2023/04/28 09:58:43;;;;;;;0.30;0.30;;;;;;;13.19;95.04;95200.97;4363344;32;20200;-58
2023/04/28 10:01:18;;;;;;;0.57;0.57;;;;;;;13.15;95.93;95200.81;4352579;32;20246;-57
2023/04/28 10:03:48;;;;;;;0.47;0.47;;;;;;;12.91;96.54;95195.09;4377139;32;20200;-55
2023/04/28 10:06:15;;;;;;;0.13;0.13;;;;;;;13.03;97.18;95192.66;4320978;32;20237;-56
2023/04/28 10:08:44;;;;;;;0.87;0.40;;;;;;;13.07;97.14;95198.91;4357435;32;20229;-57
2023/04/28 10:11:12;;;;;;;0.10;0.10;;;;;;;13.23;96.29;95201.94;4333956;32;20240;-58
2023/04/28 10:13:47;;;;;;;3.50;0.30;;;;;;;13.25;96.66;95197.88;4367389;32;20193;-56
2023/04/28 10:16:17;;;;;;;1.30;0.80;;;;;;;13.16;97.20;95201.59;4340462;32;20188;-56
2023/04/28 10:18:44;;;;;;;0.53;0.53;;;;;;;13.25;96.86;95202.41;4340868;32;20205;-57
2023/04/28 10:21:14;;;;;;;0.20;0.20;;;;;;;13.25;96.38;95191.75;4327176;32;20208;-57
2023/04/28 10:24:07;;;;;;;0.43;0.43;;;;;;;13.18;97.10;95202.09;4355650;32;20256;-57
2023/04/28 10:27:05;;;;;;;0.13;0.13;;;;;;;13.06;97.39;95181.38;4309879;32;20233;-57
2023/04/28 10:29:32;;;;;;;0.40;0.40;;;;;;;13.12;97.35;95189.97;4308335;32;20247;-55
2023/04/28 10:32:34;;;;;;;4.97;0.30;;;;;;;13.24;97.13;95190.97;4352931;32;20188;-57
2023/04/28 10:35:31;;;;;;;0.00;0.00;;;;;;;13.24;96.91;95187.53;4341944;32;20244;-57
2023/04/28 10:38:22;;;;;;;0.57;0.57;;;;;;;13.24;96.33;95182.97;4344376;32;20295;-56
2023/04/28 10:41:01;;;;;;;0.30;0.30;;;;;;;13.24;97.06;95176.87;4380518;32;20351;-57
2023/04/28 10:43:30;;;;;;;1.20;0.37;;;;;;;13.28;96.48;95183.13;4354776;32;20207;-57
2023/04/28 10:46:18;;;;;;;0.50;0.50;;;;;;;13.27;96.93;95178.91;4362177;32;20176;-56
2023/04/28 10:48:50;;;;;;;0.10;0.10;;;;;;;13.25;96.67;95189.09;4367796;32;20199;-55
2023/04/28 10:51:16;;;;;;;0.47;0.47;;;;;;;13.28;96.55;95175.16;4362538;32;20244;-56
2023/04/28 10:53:44;;;;;;;0.20;0.20;;;;;;;13.27;95.63;95182.34;4387450;32;20246;-57
2023/04/28 10:56:27;;;;;;;0.30;0.20;;;;;;;12.99;97.37;95181.81;4384185;32;20192;-58
2023/04/28 10:58:59;;;;;;;0.00;0.00;;;;;;;13.00;97.78;95178.06;4363400;32;20207;-57
2023/04/28 11:01:33;;;;;;;0.07;0.07;;;;;;;12.94;98.22;95176.63;4395183;32;20207;-58
2023/04/28 11:04:16;;;;;;;0.37;0.37;;;;;;;13.08;97.82;95171.97;4379124;32;20232;-58
2023/04/28 11:06:46;;;;;;;0.30;0.30;;;;;;;13.13;98.19;95172.91;4362983;32;20188;-58
2023/04/28 11:09:14;;;;;;;0.10;0.10;;;;;;;13.33;97.12;95174.97;4367244;32;20181;-61
2023/04/28 11:12:04;;;;;;;0.47;0.40;;;;;;;13.47;96.64;95175.59;4374015;32;20236;-58
2023/04/28 11:14:41;;;;;;;0.00;0.00;;;;;;;13.59;95.85;95181.06;4376088;32;20184;-58
2023/04/28 11:17:12;;;;;;;3.53;0.50;;;;;;;13.54;95.91;95186.56;4365113;32;20184;-58
2023/04/28 11:19:44;;;;;;;0.07;0.07;;;;;;;13.33;96.80;95181.09;4341023;32;20177;-58
2023/04/28 11:22:20;;;;;;;0.20;0.20;;;;;;;13.35;97.27;95178.09;4336992;32;20302;-58
2023/04/28 11:25:01;;;;;;;0.27;0.27;;;;;;;13.29;97.35;95185.50;4369966;32;20234;-57
2023/04/28 11:27:33;;;;;;;0.20;0.20;;;;;;;13.31;97.47;95177.94;4376693;32;20241;-57
2023/04/28 11:30:00;;;;;;;0.83;0.33;;;;;;;13.33;97.31;95190.94;4376399;32;20221;-59
2023/04/28 11:32:32;;;;;;;0.67;0.43;;;;;;;13.17;98.27;95181.88;4366262;32;20182;-58
2023/04/28 11:35:20;;;;;;;0.20;0.20;;;;;;;13.34;97.74;95181.88;4331358;32;20193;-59
2023/04/28 11:38:03;;;;;;;0.17;0.17;;;;;;;13.46;97.37;95189.25;4354312;32;20235;-57
2023/04/28 11:40:28;;;;;;;0.07;0.07;;;;;;;13.49;96.98;95188.62;4379639;32;20184;-59
2023/04/28 11:42:55;;;;;;;0.30;0.30;;;;;;;13.54;96.79;95183.91;4375220;32;20198;-57
2023/04/28 11:45:26;;;;;;;0.10;0.10;;;;;;;13.56;97.17;95187.03;4383425;32;20217;-58